Time;durP1;ratioP1;P1;durP2;ratioP2;P2;SDS_P1;SDS_P2;PMS_P1;PMS_P2;Temp;Humidity;BMP_temperature;BMP_pressure;BME280_temperature;BME280_humidity;BME280_pressure;Samples;Min_cycle;Max_cycle;Signal;HPM_P1;HPM_P2
2022/03/20 00:00:39;;;;;;;;;;;;;;;5.26;100.00;103386.41;5115742;28;19920;-79
2022/03/20 00:03:12;;;;;;;;;;;;;;;5.23;100.00;103376.56;5133507;28;19940;-78
2022/03/20 00:05:39;;;;;;;;;;;;;;;5.28;100.00;103372.69;5115943;28;20335;-78
2022/03/20 00:08:09;;;;;;;;;;;;;;;5.27;100.00;103378.72;5132513;28;20017;-78
2022/03/20 00:10:40;;;;;;;;;;;;;;;5.25;100.00;103374.09;5115663;28;19931;-78
2022/03/20 00:13:09;;;;;;;;;;;;;;;5.24;100.00;103369.66;5099023;27;20040;-80
2022/03/20 00:15:34;;;;;;;;;;;;;;;5.25;100.00;103371.47;5119297;27;19987;-78
2022/03/20 00:18:00;;;;;;;;;;;;;;;5.21;100.00;103362.44;5118984;27;19962;-77
2022/03/20 00:20:26;;;;;;;;;;;;;;;5.18;100.00;103359.53;5119942;27;19924;-79
2022/03/20 00:22:52;;;;;;;;;;;;;;;5.12;100.00;103361.53;5119617;27;19916;-78
2022/03/20 00:25:17;;;;;;;;;;;;;;;5.15;100.00;103354.00;5137241;27;19925;-78
2022/03/20 00:27:42;;;;;;;;;;;;;;;5.05;100.00;103360.03;5118953;27;19919;-78
2022/03/20 00:30:08;;;;;;;;;;;;;;;5.01;100.00;103350.03;5118765;27;19915;-78
2022/03/20 00:32:33;;;;;;;;;;;;;;;4.93;100.00;103348.38;5119374;27;19979;-78
2022/03/20 00:35:00;;;;;;;;;;;;;;;4.91;100.00;103347.25;5118811;27;19916;-78
2022/03/20 00:37:26;;;;;;;;;;;;;;;4.92;100.00;103336.97;5119601;27;19945;-78
2022/03/20 00:39:51;;;;;;;;;;;;;;;4.87;100.00;103338.22;5119211;27;20009;-78
2022/03/20 00:42:16;;;;;;;;;;;;;;;4.84;100.00;103331.00;5118819;27;19959;-78
2022/03/20 00:44:42;;;;;;;;;;;;;;;4.79;100.00;103326.09;5117406;27;20018;-78
2022/03/20 00:47:08;;;;;;;;;;;;;;;4.79;100.00;103333.94;5117251;27;20056;-77
2022/03/20 00:49:34;;;;;;;;;;;;;;;4.81;100.00;103327.16;5118565;27;19950;-78
2022/03/20 00:51:59;;;;;;;;;;;;;;;4.77;100.00;103333.78;5118760;27;20654;-77
2022/03/20 00:54:27;;;;;;;;;;;;;;;4.76;100.00;103323.19;5101776;27;20010;-76
2022/03/20 00:56:53;;;;;;;;;;;;;;;4.74;100.00;103311.66;5137084;27;19926;-78
2022/03/20 00:59:18;;;;;;;;;;;;;;;4.77;100.00;103322.41;5101296;27;20260;-78
2022/03/20 01:01:44;;;;;;;;;;;;;;;4.74;100.00;103316.88;5136847;27;20294;-78
2022/03/20 01:04:11;;;;;;;;;;;;;;;4.70;100.00;103301.69;5118742;27;20458;-77
2022/03/20 01:06:37;;;;;;;;;;;;;;;4.70;100.00;103322.59;5136755;27;19915;-79
2022/03/20 01:09:02;;;;;;;;;;;;;;;4.67;100.00;103307.53;5097689;28;20011;-78
2022/03/20 01:11:28;;;;;;;;;;;;;;;4.65;100.00;103298.63;5098245;27;19941;-77
2022/03/20 01:13:55;;;;;;;;;;;;;;;4.63;100.00;103290.66;5118172;27;19931;-78
2022/03/20 01:16:21;;;;;;;;;;;;;;;4.64;100.00;103296.78;5101345;27;19919;-78
2022/03/20 01:18:47;;;;;;;;;;;;;;;4.63;100.00;103288.03;5118173;27;19953;-78
2022/03/20 01:21:12;;;;;;;;;;;;;;;4.61;100.00;103280.81;5118193;27;19915;-78
2022/03/20 01:23:47;;;;;;;;;;;;;;;4.61;100.00;103271.28;5118772;27;20290;-77
2022/03/20 01:26:12;;;;;;;;;;;;;;;4.54;100.00;103266.25;5100919;27;19954;-77
2022/03/20 01:28:37;;;;;;;;;;;;;;;4.51;100.00;103252.00;5117913;27;19951;-78
2022/03/20 01:31:03;;;;;;;;;;;;;;;4.44;100.00;103260.88;5117936;27;19915;-78
2022/03/20 01:33:29;;;;;;;;;;;;;;;4.44;100.00;103259.22;5118505;27;19920;-78
2022/03/20 01:35:54;;;;;;;;;;;;;;;4.46;100.00;103254.16;5115432;27;19916;-78
2022/03/20 01:38:20;;;;;;;;;;;;;;;4.43;100.00;103236.50;5135983;27;19926;-77
2022/03/20 01:40:49;;;;;;;;;;;;;;;4.43;100.00;103253.84;5118317;27;19974;-79
2022/03/20 01:43:16;;;;;;;;;;;;;;;4.40;100.00;103246.63;5117517;27;19920;-78
2022/03/20 01:45:41;;;;;;;;;;;;;;;4.34;100.00;103239.88;5117663;27;19915;-77
2022/03/20 01:48:06;;;;;;;;;;;;;;;4.31;100.00;103241.41;5117267;27;19972;-77
2022/03/20 01:50:34;;;;;;;;;;;;;;;4.37;100.00;103234.97;5117872;27;20462;-78
2022/03/20 01:53:03;;;;;;;;;;;;;;;4.30;100.00;103230.81;5117687;27;19937;-76
2022/03/20 01:55:29;;;;;;;;;;;;;;;4.26;100.00;103231.28;5117784;27;19919;-77
2022/03/20 01:57:56;;;;;;;;;;;;;;;4.21;100.00;103223.00;5117289;27;20377;-79
2022/03/20 02:00:24;;;;;;;;;;;;;;;4.17;100.00;103223.47;5117435;27;19912;-79
2022/03/20 02:02:50;;;;;;;;;;;;;;;4.21;100.00;103224.69;5117632;27;19920;-79
2022/03/20 02:05:15;;;;;;;;;;;;;;;4.21;100.00;103215.19;5116913;27;20226;-78
2022/03/20 02:07:41;;;;;;;;;;;;;;;4.18;100.00;103216.53;5117120;27;19919;-78
2022/03/20 02:10:08;;;;;;;;;;;;;;;4.17;100.00;103207.81;5135117;27;19920;-77
2022/03/20 02:12:34;;;;;;;;;;;;;;;4.16;100.00;103195.53;5117286;27;20377;-78
2022/03/20 02:15:06;;;;;;;;;;;;;;;4.13;100.00;103203.03;5117066;27;19923;-78
2022/03/20 02:17:32;;;;;;;;;;;;;;;4.12;100.00;103198.63;5116873;27;20014;-77
2022/03/20 02:19:58;;;;;;;;;;;;;;;4.11;100.00;103191.56;5117113;27;19965;-77
2022/03/20 02:22:24;;;;;;;;;;;;;;;4.10;100.00;103189.69;5135588;27;20040;-79
2022/03/20 02:24:51;;;;;;;;;;;;;;;4.07;100.00;103185.13;5135442;27;19919;-77
2022/03/20 02:27:27;;;;;;;;;;;;;;;4.05;100.00;103197.06;5117088;27;20010;-78
2022/03/20 02:29:57;;;;;;;;;;;;;;;4.00;100.00;103179.16;5117111;27;19926;-77
2022/03/20 02:32:27;;;;;;;;;;;;;;;4.01;100.00;103168.88;5134936;27;20367;-76
2022/03/20 02:34:55;;;;;;;;;;;;;;;3.95;100.00;103171.78;5117122;27;19966;-77
2022/03/20 02:37:22;;;;;;;;;;;;;;;3.92;100.00;103161.03;5116459;27;19915;-79
2022/03/20 02:39:51;;;;;;;;;;;;;;;3.88;100.00;103158.88;5135350;27;19915;-77
2022/03/20 02:42:16;;;;;;;;;;;;;;;3.85;100.00;103153.34;5134347;27;19916;-77
2022/03/20 02:44:54;;;;;;;;;;;;;;;3.91;100.00;103155.66;5116838;27;20314;-78
2022/03/20 02:47:29;;;;;;;;;;;;;;;3.85;100.00;103150.75;5116092;27;19973;-77
2022/03/20 02:49:55;;;;;;;;;;;;;;;3.85;100.00;103144.63;5116325;27;20307;-78
2022/03/20 02:52:25;;;;;;;;;;;;;;;3.79;100.00;103137.09;5116751;27;19916;-78
2022/03/20 02:54:52;;;;;;;;;;;;;;;3.80;100.00;103131.13;5116848;28;19916;-77
2022/03/20 02:57:18;;;;;;;;;;;;;;;3.81;100.00;103129.44;5115537;27;19922;-77
2022/03/20 02:59:43;;;;;;;;;;;;;;;3.80;100.00;103117.19;5114134;27;20446;-78
2022/03/20 03:02:09;;;;;;;;;;;;;;;3.76;100.00;103132.53;5115925;27;19919;-78
2022/03/20 03:04:44;;;;;;;;;;;;;;;3.77;100.00;103123.00;5116450;27;19940;-78
2022/03/20 03:07:09;;;;;;;;;;;;;;;3.70;100.00;103112.75;5115188;27;19963;-79
2022/03/20 03:12:18;;;;;;;;;;;;;;;3.68;100.00;103122.09;5134904;27;19938;-80
2022/03/20 03:17:36;;;;;;;;;;;;;;;3.61;100.00;103117.06;5114389;28;19927;-78
2022/03/20 03:20:08;;;;;;;;;;;;;;;3.55;100.00;103115.66;5124760;27;19922;-77
2022/03/20 03:22:33;;;;;;;;;;;;;;;3.54;100.00;103119.03;5116321;28;20006;-77
2022/03/20 03:25:02;;;;;;;;;;;;;;;3.48;100.00;103115.81;5115325;28;19919;-79
2022/03/20 03:27:27;;;;;;;;;;;;;;;3.42;100.00;103120.41;5115912;28;20317;-78
2022/03/20 03:29:53;;;;;;;;;;;;;;;3.37;100.00;103112.13;5115692;28;19937;-79
2022/03/20 03:32:19;;;;;;;;;;;;;;;3.34;100.00;103105.66;5116336;28;19922;-78
2022/03/20 03:37:28;;;;;;;;;;;;;;;3.24;100.00;103099.53;5134491;28;19927;-78
2022/03/20 03:39:53;;;;;;;;;;;;;;;3.22;100.00;103093.25;5116258;28;20274;-78
2022/03/20 03:42:19;;;;;;;;;;;;;;;3.20;100.00;103086.97;5116356;28;19968;-77
2022/03/20 03:44:49;;;;;;;;;;;;;;;3.16;100.00;103078.69;5115951;28;20437;-78
2022/03/20 03:47:14;;;;;;;;;;;;;;;3.13;100.00;103089.72;5116061;28;19934;-78
2022/03/20 03:49:40;;;;;;;;;;;;;;;3.12;100.00;103074.84;5117505;27;19919;-78
2022/03/20 03:52:05;;;;;;;;;;;;;;;3.12;100.00;103063.53;5119733;27;20545;-79
2022/03/20 03:54:31;;;;;;;;;;;;;;;3.11;100.00;103069.47;5119866;27;19922;-79
2022/03/20 03:56:58;;;;;;;;;;;;;;;3.11;100.00;103074.69;5119227;27;19923;-77
2022/03/20 03:59:23;;;;;;;;;;;;;;;3.10;100.00;103073.78;5119928;27;19946;-79
2022/03/20 04:01:49;;;;;;;;;;;;;;;3.07;100.00;103080.38;5119652;27;19923;-79
2022/03/20 04:04:14;;;;;;;;;;;;;;;3.07;100.00;103068.25;5137930;27;19915;-79
2022/03/20 04:06:39;;;;;;;;;;;;;;;2.98;100.00;103043.91;5119659;27;19916;-78
2022/03/20 04:09:05;;;;;;;;;;;;;;;2.95;100.00;103043.56;5119646;27;19922;-79
2022/03/20 04:11:30;;;;;;;;;;;;;;;2.99;100.00;103035.34;5119320;27;20011;-79
2022/03/20 04:13:56;;;;;;;;;;;;;;;2.99;100.00;103049.25;5119278;27;19919;-79
2022/03/20 04:16:21;;;;;;;;;;;;;;;2.94;100.00;103033.97;5119183;27;19942;-80
2022/03/20 04:18:47;;;;;;;;;;;;;;;2.90;100.00;103021.38;5119524;27;20055;-79
2022/03/20 04:21:12;;;;;;;;;;;;;;;2.88;100.00;103035.16;5119061;27;20367;-79
2022/03/20 04:23:49;;;;;;;;;;;;;;;2.88;100.00;103029.94;5103019;27;19920;-78
2022/03/20 04:26:33;;;;;;;;;;;;;;;2.85;100.00;103032.22;5119381;27;19919;-79
2022/03/20 04:28:58;;;;;;;;;;;;;;;2.83;100.00;103025.97;5093227;27;19923;-78
2022/03/20 04:31:23;;;;;;;;;;;;;;;2.80;100.00;103020.44;5119262;27;19927;-79
2022/03/20 04:33:59;;;;;;;;;;;;;;;2.79;100.00;103017.69;5119192;27;20274;-79
2022/03/20 04:36:25;;;;;;;;;;;;;;;2.76;100.00;103018.28;5119247;27;19923;-79
2022/03/20 04:38:54;;;;;;;;;;;;;;;2.76;100.00;103012.16;5137760;27;19915;-79
2022/03/20 04:41:20;;;;;;;;;;;;;;;2.74;100.00;103014.63;5119468;27;19919;-79
2022/03/20 04:43:47;;;;;;;;;;;;;;;2.74;100.00;103006.81;5119388;27;19926;-79
2022/03/20 04:46:13;;;;;;;;;;;;;;;2.69;100.00;103002.81;5118325;27;19920;-80
2022/03/20 04:59:50;;;;;;;;;;;;;;;2.64;100.00;102986.75;5131665;27;19930;-79
2022/03/20 05:02:16;;;;;;;;;;;;;;;2.67;100.00;102989.66;5118619;27;20443;-80
2022/03/20 05:04:42;;;;;;;;;;;;;;;2.72;100.00;103008.34;5118967;27;19919;-79
2022/03/20 05:07:07;;;;;;;;;;;;;;;2.70;100.00;102981.22;5116229;27;19915;-79
2022/03/20 05:15:15;;;;;;;;;;;;;;;2.64;100.00;102967.59;5136655;27;19926;-77
2022/03/20 05:17:45;;;;;;;;;;;;;;;2.61;100.00;102957.81;5118464;27;19919;-79
2022/03/20 05:20:10;;;;;;;;;;;;;;;2.61;100.00;102950.03;5118177;27;19915;-77
2022/03/20 05:22:39;;;;;;;;;;;;;;;2.61;100.00;102942.22;5117621;27;20018;-79
2022/03/20 05:25:12;;;;;;;;;;;;;;;2.61;100.00;102941.28;5101273;27;19927;-78
2022/03/20 05:27:38;;;;;;;;;;;;;;;2.58;100.00;102943.56;5118106;27;20001;-79
2022/03/20 05:30:05;;;;;;;;;;;;;;;2.54;100.00;102931.03;5117886;27;19954;-79
2022/03/20 05:32:32;;;;;;;;;;;;;;;2.53;100.00;102927.47;5101359;27;19947;-79
2022/03/20 05:35:06;;;;;;;;;;;;;;;2.51;100.00;102914.31;5100957;27;19915;-78
2022/03/20 05:37:32;;;;;;;;;;;;;;;2.44;100.00;102914.50;5118081;27;20402;-77
2022/03/20 05:39:58;;;;;;;;;;;;;;;2.48;100.00;102926.09;5117827;27;19957;-77
2022/03/20 05:42:23;;;;;;;;;;;;;;;2.50;100.00;102924.56;5117764;27;20022;-79
2022/03/20 05:44:51;;;;;;;;;;;;;;;2.53;100.00;102929.19;5117809;27;19947;-79
2022/03/20 05:47:16;;;;;;;;;;;;;;;2.51;100.00;102926.41;5117789;27;20009;-79
2022/03/20 05:49:42;;;;;;;;;;;;;;;2.48;100.00;102921.81;5117946;27;19915;-78
2022/03/20 05:52:07;;;;;;;;;;;;;;;2.50;100.00;102909.91;5117661;27;20335;-79
2022/03/20 05:54:46;;;;;;;;;;;;;;;2.50;100.00;102909.91;5117571;27;19920;-79
2022/03/20 05:59:55;;;;;;;;;;;;;;;2.55;100.00;102896.44;5124634;27;20004;-78
2022/03/20 06:02:21;;;;;;;;;;;;;;;2.55;100.00;102896.44;5133939;27;20214;-78
2022/03/20 06:04:48;;;;;;;;;;;;;;;2.58;100.00;102889.88;5115977;27;20405;-78
2022/03/20 06:07:13;;;;;;;;;;;;;;;2.64;100.00;102899.97;5114419;27;20438;-79
2022/03/20 06:09:38;;;;;;;;;;;;;;;2.66;100.00;102895.84;5114998;27;19927;-78
2022/03/20 06:12:06;;;;;;;;;;;;;;;2.66;100.00;102885.44;5116503;27;19927;-79
2022/03/20 06:14:38;;;;;;;;;;;;;;;2.70;100.00;102890.19;5135455;27;19924;-78
2022/03/20 06:17:05;;;;;;;;;;;;;;;2.68;100.00;102890.03;5116886;27;20292;-78
2022/03/20 06:19:30;;;;;;;;;;;;;;;2.74;100.00;102887.13;5117334;27;19919;-78
2022/03/20 06:21:55;;;;;;;;;;;;;;;2.75;100.00;102898.44;5116938;27;20014;-79
2022/03/20 06:24:22;;;;;;;;;;;;;;;2.77;100.00;102903.03;5116422;27;19916;-78
2022/03/20 06:26:47;;;;;;;;;;;;;;;2.78;100.00;102902.28;5114720;27;19919;-78
2022/03/20 06:29:12;;;;;;;;;;;;;;;2.81;100.00;102899.06;5116281;27;20186;-78
2022/03/20 06:31:38;;;;;;;;;;;;;;;2.84;100.00;102896.75;5099466;27;19919;-77
2022/03/20 06:34:04;;;;;;;;;;;;;;;2.86;100.00;102895.25;5116447;27;19915;-77
2022/03/20 06:36:30;;;;;;;;;;;;;;;2.90;100.00;102892.16;5134853;27;19926;-77
2022/03/20 06:38:55;;;;;;;;;;;;;;;2.99;100.00;102894.78;5116781;27;19919;-78
2022/03/20 06:41:22;;;;;;;;;;;;;;;3.13;100.00;102875.31;5116752;27;19943;-77
2022/03/20 06:43:47;;;;;;;;;;;;;;;3.19;100.00;102873.31;5116338;27;19915;-78
2022/03/20 06:46:14;;;;;;;;;;;;;;;3.51;100.00;102871.25;5115678;27;20243;-78
2022/03/20 06:48:39;;;;;;;;;;;;;;;3.66;100.00;102874.41;5116598;27;19916;-78
2022/03/20 06:51:05;;;;;;;;;;;;;;;3.91;100.00;102871.53;5116372;27;19922;-78
2022/03/20 06:53:34;;;;;;;;;;;;;;;3.90;100.00;102869.69;5117287;27;20004;-77
2022/03/20 06:56:00;;;;;;;;;;;;;;;3.88;100.00;102882.59;5135226;27;20010;-78
2022/03/20 06:58:26;;;;;;;;;;;;;;;4.12;100.00;102881.41;5134142;27;20039;-76
2022/03/20 07:00:53;;;;;;;;;;;;;;;4.22;100.00;102862.31;5116608;27;19915;-80
2022/03/20 07:03:23;;;;;;;;;;;;;;;4.08;100.00;102874.06;5115873;27;20002;-78
2022/03/20 07:05:48;;;;;;;;;;;;;;;4.03;100.00;102870.09;5134180;27;20014;-77
2022/03/20 07:08:13;;;;;;;;;;;;;;;4.07;100.00;102868.69;5115956;27;19982;-77
2022/03/20 07:10:39;;;;;;;;;;;;;;;4.07;100.00;102874.84;5099251;27;19927;-78
2022/03/20 07:15:59;;;;;;;;;;;;;;;4.03;100.00;102858.78;5134536;27;19921;-76
2022/03/20 07:18:25;;;;;;;;;;;;;;;3.92;100.00;102858.66;5100764;27;19924;-78
2022/03/20 07:20:50;;;;;;;;;;;;;;;4.03;100.00;102853.56;5114042;28;19919;-77
2022/03/20 07:23:17;;;;;;;;;;;;;;;4.17;100.00;102854.84;5131712;27;20533;-77
2022/03/20 07:31:11;;;;;;;;;;;;;;;4.25;100.00;102840.84;5130453;28;19922;-77
2022/03/20 07:33:39;;;;;;;;;;;;;;;4.31;100.00;102834.50;5115518;28;20342;-77
2022/03/20 07:36:05;;;;;;;;;;;;;;;4.26;100.00;102827.94;5115876;28;19943;-78
2022/03/20 07:38:31;;;;;;;;;;;;;;;4.40;100.00;102831.84;5115425;28;19915;-78
2022/03/20 07:40:57;;;;;;;;;;;;;;;4.57;100.00;102828.16;5115178;28;19919;-76
2022/03/20 07:43:27;;;;;;;;;;;;;;;4.33;100.00;102818.97;5115648;28;20320;-78
2022/03/20 07:45:53;;;;;;;;;;;;;;;4.15;100.00;102813.00;5114958;28;19916;-77
2022/03/20 07:48:21;;;;;;;;;;;;;;;4.18;100.00;102810.66;5114786;28;19923;-77
2022/03/20 07:50:47;;;;;;;;;;;;;;;4.20;100.00;102798.69;5115821;28;19916;-79
2022/03/20 07:53:23;;;;;;;;;;;;;;;4.22;100.00;102810.16;5133156;28;19979;-78
2022/03/20 07:55:49;;;;;;;;;;;;;;;4.49;100.00;102806.59;5134242;28;19915;-78
2022/03/20 07:58:18;;;;;;;;;;;;;;;4.64;100.00;102796.63;5134666;28;19991;-78
2022/03/20 08:00:44;;;;;;;;;;;;;;;4.63;100.00;102789.59;5114263;28;19946;-77
2022/03/20 08:03:10;;;;;;;;;;;;;;;4.54;100.00;102793.03;5113437;28;19938;-77
2022/03/20 08:05:36;;;;;;;;;;;;;;;4.46;100.00;102802.78;5133540;28;20045;-79
2022/03/20 08:08:02;;;;;;;;;;;;;;;4.40;100.00;102797.00;5115249;28;20029;-78
2022/03/20 08:10:28;;;;;;;;;;;;;;;4.38;100.00;102790.72;5128973;28;19916;-78
2022/03/20 08:12:55;;;;;;;;;;;;;;;4.43;100.00;102789.47;5078103;28;20402;-77
2022/03/20 08:15:22;;;;;;;;;;;;;;;4.48;100.00;102791.69;5148749;27;19945;-78
2022/03/20 08:17:48;;;;;;;;;;;;;;;4.40;100.00;102792.69;5115829;28;20006;-78
2022/03/20 08:20:14;;;;;;;;;;;;;;;4.54;100.00;102785.19;5114843;28;19920;-78
2022/03/20 08:22:40;;;;;;;;;;;;;;;4.41;100.00;102775.34;5098292;28;19976;-77
2022/03/20 08:25:10;;;;;;;;;;;;;;;4.38;100.00;102770.78;5115359;28;19919;-77
2022/03/20 08:27:49;;;;;;;;;;;;;;;4.42;100.00;102785.91;5115143;28;19919;-77
2022/03/20 08:30:17;;;;;;;;;;;;;;;4.30;100.00;102783.13;5115325;28;19920;-78
2022/03/20 08:32:49;;;;;;;;;;;;;;;4.31;100.00;102769.28;5098021;28;19919;-77
2022/03/20 08:35:15;;;;;;;;;;;;;;;4.27;100.00;102780.22;5116621;27;20381;-79
2022/03/20 08:37:44;;;;;;;;;;;;;;;4.34;100.00;102786.91;5118046;27;19998;-79
2022/03/20 08:40:17;;;;;;;;;;;;;;;4.33;100.00;102777.25;5118717;27;19919;-79
2022/03/20 08:42:57;;;;;;;;;;;;;;;4.34;100.00;102783.41;5118466;27;20381;-77
2022/03/20 08:45:24;;;;;;;;;;;;;;;4.46;100.00;102766.28;5118846;27;19927;-76
2022/03/20 08:47:49;;;;;;;;;;;;;;;4.57;100.00;102762.00;5100867;27;19920;-78
2022/03/20 08:50:19;;;;;;;;;;;;;;;4.58;100.00;102758.63;5135592;27;19926;-79
2022/03/20 08:52:48;;;;;;;;;;;;;;;4.58;100.00;102753.41;5101958;27;19964;-79
2022/03/20 08:55:14;;;;;;;;;;;;;;;4.62;100.00;102769.47;5118164;27;19919;-78
2022/03/20 08:57:40;;;;;;;;;;;;;;;4.62;100.00;102755.53;5099175;27;19974;-78
2022/03/20 09:00:10;;;;;;;;;;;;;;;4.62;100.00;102753.81;5116527;27;20497;-77
2022/03/20 09:02:36;;;;;;;;;;;;;;;4.75;100.00;102744.50;5099820;27;19935;-78
2022/03/20 09:05:02;;;;;;;;;;;;;;;4.74;100.00;102753.09;5115872;27;20356;-78
2022/03/20 09:07:27;;;;;;;;;;;;;;;4.77;100.00;102745.53;5098884;27;20394;-78
2022/03/20 09:09:53;;;;;;;;;;;;;;;4.79;100.00;102747.50;5116582;27;19920;-78
2022/03/20 09:12:20;;;;;;;;;;;;;;;4.87;100.00;102749.91;5115869;27;19930;-78
2022/03/20 09:14:47;;;;;;;;;;;;;;;4.76;100.00;102756.78;5116981;27;20029;-78
2022/03/20 09:19:57;;;;;;;;;;;;;;;4.74;100.00;102742.66;5120779;27;19946;-78
2022/03/20 09:22:26;;;;;;;;;;;;;;;4.78;100.00;102743.06;5116144;27;20358;-77
2022/03/20 09:24:53;;;;;;;;;;;;;;;4.77;100.00;102742.94;5136337;27;20008;-79
2022/03/20 09:27:19;;;;;;;;;;;;;;;4.80;100.00;102751.97;5117958;27;19976;-79
2022/03/20 09:29:52;;;;;;;;;;;;;;;4.91;100.00;102750.31;5135732;27;19919;-78
2022/03/20 09:32:17;;;;;;;;;;;;;;;5.02;100.00;102754.78;5116206;27;19922;-78
2022/03/20 09:34:44;;;;;;;;;;;;;;;5.16;100.00;102753.41;5116496;27;19911;-77
2022/03/20 09:37:11;;;;;;;;;;;;;;;5.20;100.00;102746.75;5135512;27;20304;-77
2022/03/20 09:39:37;;;;;;;;;;;;;;;5.34;100.00;102738.41;5117130;27;19948;-76
2022/03/20 09:42:03;;;;;;;;;;;;;;;5.35;100.00;102744.56;5116990;27;19955;-77
2022/03/20 09:44:29;;;;;;;;;;;;;;;5.33;100.00;102753.94;5117788;27;19953;-77
2022/03/20 09:46:55;;;;;;;;;;;;;;;5.33;100.00;102753.94;5116864;27;19915;-77
2022/03/20 09:49:22;;;;;;;;;;;;;;;5.24;100.00;102761.00;5135315;27;19961;-77
2022/03/20 09:51:47;;;;;;;;;;;;;;;5.24;100.00;102751.47;5117192;27;19916;-77
2022/03/20 09:54:14;;;;;;;;;;;;;;;5.27;100.00;102748.22;5134440;27;20620;-77
2022/03/20 09:56:41;;;;;;;;;;;;;;;5.36;100.00;102763.00;5114528;27;19915;-77
2022/03/20 09:59:07;;;;;;;;;;;;;;;5.34;100.00;102764.53;5133734;27;19926;-77
2022/03/20 10:01:33;;;;;;;;;;;;;;;5.31;100.00;102752.91;5135474;27;19915;-76
2022/03/20 10:04:15;;;;;;;;;;;;;;;5.26;100.00;102749.00;5134639;27;19950;-77
2022/03/20 10:06:41;;;;;;;;;;;;;;;5.32;100.00;102745.22;5117162;27;19916;-77
2022/03/20 10:09:09;;;;;;;;;;;;;;;5.32;100.00;102745.22;5116468;27;19926;-77
2022/03/20 10:11:37;;;;;;;;;;;;;;;5.29;100.00;102744.03;5117266;27;19915;-77
2022/03/20 10:14:23;;;;;;;;;;;;;;;5.09;100.00;102724.00;5116639;27;19916;-77
2022/03/20 10:17:14;;;;;;;;;;;;;;;5.30;100.00;102719.72;5117415;27;20006;-76
2022/03/20 10:19:39;;;;;;;;;;;;;;;5.49;100.00;102714.41;5151256;27;19919;-78
2022/03/20 10:22:06;;;;;;;;;;;;;;;5.53;100.00;102704.38;5116574;27;20354;-76
2022/03/20 10:24:34;;;;;;;;;;;;;;;5.79;100.00;102703.06;5115033;27;19916;-77
2022/03/20 10:26:59;;;;;;;;;;;;;;;6.04;100.00;102702.53;5096233;28;19923;-77
2022/03/20 10:29:25;;;;;;;;;;;;;;;5.75;100.00;102704.50;5095878;28;19919;-78
2022/03/20 10:31:51;;;;;;;;;;;;;;;5.99;100.00;102690.78;5096315;28;19960;-77
2022/03/20 10:34:18;;;;;;;;;;;;;;;6.23;100.00;102681.44;5079096;28;19924;-77
2022/03/20 10:36:43;;;;;;;;;;;;;;;6.27;100.00;102654.75;5095836;28;19916;-77
2022/03/20 10:39:11;;;;;;;;;;;;;;;6.35;100.00;102655.38;5113748;28;19985;-77
2022/03/20 10:41:38;;;;;;;;;;;;;;;6.28;100.00;102664.44;5114192;28;19920;-77
2022/03/20 10:44:15;;;;;;;;;;;;;;;6.07;100.00;102674.94;5095817;28;20287;-78
2022/03/20 10:46:41;;;;;;;;;;;;;;;6.20;100.00;102678.56;5096199;28;19916;-78
2022/03/20 10:49:07;;;;;;;;;;;;;;;6.30;100.00;102670.72;5095693;28;19926;-78
2022/03/20 10:51:38;;;;;;;;;;;;;;;6.32;100.00;102668.22;5095689;28;19920;-77
2022/03/20 10:54:12;;;;;;;;;;;;;;;6.30;100.00;102683.78;5095655;28;19911;-78
2022/03/20 10:56:59;;;;;;;;;;;;;;;6.28;100.00;102669.69;5079262;28;20029;-76
2022/03/20 10:59:32;;;;;;;;;;;;;;;6.26;100.00;102668.63;5094236;28;19998;-77
2022/03/20 11:02:00;;;;;;;;;;;;;;;6.34;100.00;102674.47;5095545;28;19919;-77
2022/03/20 11:04:28;;;;;;;;;;;;;;;6.20;100.00;102665.50;5113103;28;19919;-78
2022/03/20 11:07:16;;;;;;;;;;;;;;;5.97;100.00;102669.75;5112973;28;19923;-77
2022/03/20 11:09:46;;;;;;;;;;;;;;;6.14;100.00;102668.53;5095096;28;19916;-77
2022/03/20 11:12:14;;;;;;;;;;;;;;;6.01;100.00;102674.47;5078219;28;19926;-76
2022/03/20 11:14:42;;;;;;;;;;;;;;;6.01;100.00;102677.06;5095232;28;19918;-76
2022/03/20 11:17:12;;;;;;;;;;;;;;;6.10;100.00;102675.19;5113920;28;19916;-78
2022/03/20 11:19:39;;;;;;;;;;;;;;;6.13;100.00;102676.25;5095402;28;20484;-77
2022/03/20 11:22:12;;;;;;;;;;;;;;;6.22;100.00;102674.41;5094823;28;19927;-77
2022/03/20 11:24:41;;;;;;;;;;;;;;;6.48;100.00;102668.69;5113228;28;19919;-78
2022/03/20 11:27:08;;;;;;;;;;;;;;;6.65;100.00;102664.84;5113325;28;19942;-76
2022/03/20 11:29:42;;;;;;;;;;;;;;;6.78;100.00;102670.25;5095207;28;19919;-78
2022/03/20 11:32:09;;;;;;;;;;;;;;;7.01;100.00;102672.09;5113412;28;19916;-78
2022/03/20 11:34:37;;;;;;;;;;;;;;;7.09;100.00;102672.72;5078854;28;20024;-77
2022/03/20 11:37:03;;;;;;;;;;;;;;;7.14;100.00;102667.84;5113391;28;20012;-78
2022/03/20 11:39:29;;;;;;;;;;;;;;;7.12;100.00;102667.72;5113526;28;20010;-78
2022/03/20 11:42:12;;;;;;;;;;;;;;;6.90;100.00;102659.84;5112909;28;20358;-78
2022/03/20 11:44:49;;;;;;;;;;;;;;;6.86;100.00;102677.81;5111715;28;20374;-78
2022/03/20 11:47:14;;;;;;;;;;;;;;;6.82;100.00;102669.72;5095133;28;19981;-77
2022/03/20 11:49:40;;;;;;;;;;;;;;;6.15;100.00;102677.28;5113634;28;19928;-78
2022/03/20 11:52:06;;;;;;;;;;;;;;;5.90;100.00;102657.84;5095054;28;19935;-77
2022/03/20 11:54:49;;;;;;;;;;;;;;;6.13;100.00;102664.09;5095296;28;19920;-78
2022/03/20 11:57:24;;;;;;;;;;;;;;;6.15;100.00;102677.28;5094776;28;19955;-77
2022/03/20 11:59:49;;;;;;;;;;;;;;;6.36;100.00;102671.22;5095040;28;19927;-77
2022/03/20 12:02:17;;;;;;;;;;;;;;;6.27;100.00;102687.06;5094855;28;19915;-78
2022/03/20 12:04:51;;;;;;;;;;;;;;;6.03;100.00;102677.16;5095031;28;20354;-77
2022/03/20 12:07:25;;;;;;;;;;;;;;;5.88;100.00;102676.78;5094992;28;19951;-78
2022/03/20 12:09:59;;;;;;;;;;;;;;;6.25;100.00;102665.09;5095340;28;20275;-78
2022/03/20 12:12:38;;;;;;;;;;;;;;;6.16;100.00;102664.34;5117659;28;19939;-78
2022/03/20 12:15:10;;;;;;;;;;;;;;;6.53;100.00;102674.31;5098774;28;20348;-78
2022/03/20 12:17:56;;;;;;;;;;;;;;;6.37;100.00;102667.81;5099270;28;19967;-78
2022/03/20 12:20:52;;;;;;;;;;;;;;;6.72;100.00;102666.25;5117203;28;19916;-78
2022/03/20 12:23:32;;;;;;;;;;;;;;;6.31;100.00;102649.00;5077669;28;19919;-78
2022/03/20 12:25:58;;;;;;;;;;;;;;;6.46;100.00;102649.31;5117207;28;19923;-78
2022/03/20 12:28:27;;;;;;;;;;;;;;;6.83;100.00;102652.28;5098158;28;19927;-77
2022/03/20 12:30:52;;;;;;;;;;;;;;;6.39;100.00;102647.91;5098752;28;19915;-78
2022/03/20 12:33:22;;;;;;;;;;;;;;;6.67;100.00;102628.31;5097711;28;19968;-77
2022/03/20 12:35:47;;;;;;;;;;;;;;;6.72;100.00;102632.19;5098733;28;19915;-77
2022/03/20 12:38:34;;;;;;;;;;;;;;;6.78;100.00;102630.97;5097890;28;20465;-78
2022/03/20 12:41:07;;;;;;;;;;;;;;;6.94;100.00;102627.88;5098122;28;19916;-77
2022/03/20 12:43:33;;;;;;;;;;;;;;;7.36;100.00;102620.63;5098185;28;19923;-78
2022/03/20 12:46:00;;;;;;;;;;;;;;;7.31;100.00;102614.13;5116381;28;19916;-76
2022/03/20 12:48:30;;;;;;;;;;;;;;;7.15;100.00;102614.66;5098366;28;19915;-77
2022/03/20 12:50:57;;;;;;;;;;;;;;;7.24;100.00;102620.59;5097890;28;20014;-77
2022/03/20 12:53:36;;;;;;;;;;;;;;;7.59;100.00;102608.38;5115524;28;20385;-77
2022/03/20 12:56:03;;;;;;;;;;;;;;;7.52;100.00;102609.63;5098264;28;20496;-77
2022/03/20 12:58:29;;;;;;;;;;;;;;;8.02;100.00;102609.91;5098064;28;20010;-77
2022/03/20 13:00:56;;;;;;;;;;;;;;;8.13;100.00;102610.69;5097743;28;20027;-77
2022/03/20 13:03:21;;;;;;;;;;;;;;;7.76;100.00;102610.56;5115991;28;19951;-78
2022/03/20 13:06:00;;;;;;;;;;;;;;;7.85;100.00;102612.97;5098078;28;19915;-78
2022/03/20 13:08:39;;;;;;;;;;;;;;;7.64;100.00;102600.06;5098352;28;20256;-77
2022/03/20 13:13:58;;;;;;;;;;;;;;;7.55;100.00;102594.09;5116286;28;19948;-78
2022/03/20 13:16:26;;;;;;;;;;;;;;;7.66;100.00;102592.31;5097741;28;19968;-78
2022/03/20 13:18:52;;;;;;;;;;;;;;;7.79;100.00;102583.69;5097787;28;20040;-78
2022/03/20 13:21:17;;;;;;;;;;;;;;;8.04;100.00;102586.41;5114898;28;20010;-78